sensor_id;sensor_type;location;lat;lon;timestamp;temperature;humidity
31387;DHT22;69978;50.096;8.448;2023-08-30T00:01:17;15.00;99.90
31387;DHT22;69978;50.096;8.448;2023-08-30T00:03:43;15.00;99.90
31387;DHT22;69978;50.096;8.448;2023-08-30T00:06:08;15.00;99.90
31387;DHT22;69978;50.096;8.448;2023-08-30T00:08:34;15.00;99.90
31387;DHT22;69978;50.096;8.448;2023-08-30T00:11:01;15.00;99.90
31387;DHT22;69978;50.096;8.448;2023-08-30T00:13:29;15.00;99.90
31387;DHT22;69978;50.096;8.448;2023-08-30T00:15:55;15.00;99.90
31387;DHT22;69978;50.096;8.448;2023-08-30T00:18:21;14.90;99.90
31387;DHT22;69978;50.096;8.448;2023-08-30T00:20:47;15.00;99.90
31387;DHT22;69978;50.096;8.448;2023-08-30T00:23:13;15.00;99.90
31387;DHT22;69978;50.096;8.448;2023-08-30T00:25:39;15.00;99.90
31387;DHT22;69978;50.096;8.448;2023-08-30T00:28:04;15.00;99.90
31387;DHT22;69978;50.096;8.448;2023-08-30T00:30:31;14.90;99.90
31387;DHT22;69978;50.096;8.448;2023-08-30T00:32:57;14.90;99.90
31387;DHT22;69978;50.096;8.448;2023-08-30T00:35:22;14.90;99.90
31387;DHT22;69978;50.096;8.448;2023-08-30T00:37:48;14.90;99.90
31387;DHT22;69978;50.096;8.448;2023-08-30T00:40:14;15.00;99.90
31387;DHT22;69978;50.096;8.448;2023-08-30T00:42:39;14.90;99.90
31387;DHT22;69978;50.096;8.448;2023-08-30T00:45:06;14.90;99.90
31387;DHT22;69978;50.096;8.448;2023-08-30T00:47:32;14.90;99.90
31387;DHT22;69978;50.096;8.448;2023-08-30T00:49:58;14.90;99.90
31387;DHT22;69978;50.096;8.448;2023-08-30T00:52:24;14.90;99.90
31387;DHT22;69978;50.096;8.448;2023-08-30T00:54:49;14.80;99.90
31387;DHT22;69978;50.096;8.448;2023-08-30T00:57:16;14.90;99.90
31387;DHT22;69978;50.096;8.448;2023-08-30T00:59:41;14.80;99.90
31387;DHT22;69978;50.096;8.448;2023-08-30T01:02:07;14.90;99.90
31387;DHT22;69978;50.096;8.448;2023-08-30T01:04:33;14.90;99.90
31387;DHT22;69978;50.096;8.448;2023-08-30T01:06:58;14.80;99.90
31387;DHT22;69978;50.096;8.448;2023-08-30T01:09:24;14.80;99.90
31387;DHT22;69978;50.096;8.448;2023-08-30T01:12:22;14.80;99.90
31387;DHT22;69978;50.096;8.448;2023-08-30T01:15:11;14.80;99.90
31387;DHT22;69978;50.096;8.448;2023-08-30T01:17:41;14.80;99.90
31387;DHT22;69978;50.096;8.448;2023-08-30T01:20:08;14.80;99.90
31387;DHT22;69978;50.096;8.448;2023-08-30T01:23:06;14.70;99.90
31387;DHT22;69978;50.096;8.448;2023-08-30T01:28:09;14.70;99.90
31387;DHT22;69978;50.096;8.448;2023-08-30T01:30:37;14.60;99.90
31387;DHT22;69978;50.096;8.448;2023-08-30T01:33:05;14.60;99.90
31387;DHT22;69978;50.096;8.448;2023-08-30T01:35:32;14.60;99.90
31387;DHT22;69978;50.096;8.448;2023-08-30T01:38:04;14.60;99.90
31387;DHT22;69978;50.096;8.448;2023-08-30T01:40:35;14.60;99.90
31387;DHT22;69978;50.096;8.448;2023-08-30T01:43:01;14.50;99.90
31387;DHT22;69978;50.096;8.448;2023-08-30T01:45:29;14.50;99.90
31387;DHT22;69978;50.096;8.448;2023-08-30T01:47:56;14.50;99.90
31387;DHT22;69978;50.096;8.448;2023-08-30T01:50:22;14.50;99.90
31387;DHT22;69978;50.096;8.448;2023-08-30T01:52:49;14.50;99.90
31387;DHT22;69978;50.096;8.448;2023-08-30T01:55:16;14.50;99.90
31387;DHT22;69978;50.096;8.448;2023-08-30T01:57:43;14.50;99.90
31387;DHT22;69978;50.096;8.448;2023-08-30T02:00:09;14.50;99.90
31387;DHT22;69978;50.096;8.448;2023-08-30T02:02:36;14.50;99.90
31387;DHT22;69978;50.096;8.448;2023-08-30T02:05:01;14.50;99.90
31387;DHT22;69978;50.096;8.448;2023-08-30T02:07:53;14.50;99.90
31387;DHT22;69978;50.096;8.448;2023-08-30T02:10:26;14.50;99.90
31387;DHT22;69978;50.096;8.448;2023-08-30T02:12:54;14.50;99.90
31387;DHT22;69978;50.096;8.448;2023-08-30T02:15:21;14.50;99.90
31387;DHT22;69978;50.096;8.448;2023-08-30T02:17:50;14.50;99.90
31387;DHT22;69978;50.096;8.448;2023-08-30T02:20:16;14.60;99.90
31387;DHT22;69978;50.096;8.448;2023-08-30T02:22:42;14.50;99.90
31387;DHT22;69978;50.096;8.448;2023-08-30T02:25:08;14.50;99.90
31387;DHT22;69978;50.096;8.448;2023-08-30T02:27:34;14.50;99.90
31387;DHT22;69978;50.096;8.448;2023-08-30T02:30:03;14.40;99.90
31387;DHT22;69978;50.096;8.448;2023-08-30T02:32:29;14.50;99.90
31387;DHT22;69978;50.096;8.448;2023-08-30T02:34:56;14.50;99.90
31387;DHT22;69978;50.096;8.448;2023-08-30T02:37:22;14.50;99.90
31387;DHT22;69978;50.096;8.448;2023-08-30T02:39:47;14.60;99.90
31387;DHT22;69978;50.096;8.448;2023-08-30T02:42:13;14.50;99.90
31387;DHT22;69978;50.096;8.448;2023-08-30T02:44:39;14.50;99.90
31387;DHT22;69978;50.096;8.448;2023-08-30T02:47:04;14.50;99.90
31387;DHT22;69978;50.096;8.448;2023-08-30T02:49:30;14.50;99.90
31387;DHT22;69978;50.096;8.448;2023-08-30T02:51:56;14.50;99.90
31387;DHT22;69978;50.096;8.448;2023-08-30T02:54:22;14.50;99.90
31387;DHT22;69978;50.096;8.448;2023-08-30T02:56:48;14.50;99.90
31387;DHT22;69978;50.096;8.448;2023-08-30T02:59:14;14.50;99.90
31387;DHT22;69978;50.096;8.448;2023-08-30T03:01:40;14.50;99.90
31387;DHT22;69978;50.096;8.448;2023-08-30T03:04:06;14.50;99.90
31387;DHT22;69978;50.096;8.448;2023-08-30T03:06:33;14.50;99.90
31387;DHT22;69978;50.096;8.448;2023-08-30T03:08:59;14.50;99.90
31387;DHT22;69978;50.096;8.448;2023-08-30T03:11:24;14.50;99.90
31387;DHT22;69978;50.096;8.448;2023-08-30T03:13:50;14.50;99.90
31387;DHT22;69978;50.096;8.448;2023-08-30T03:16:17;14.40;99.90
31387;DHT22;69978;50.096;8.448;2023-08-30T03:21:12;14.40;99.90
31387;DHT22;69978;50.096;8.448;2023-08-30T03:23:38;14.40;99.90
31387;DHT22;69978;50.096;8.448;2023-08-30T03:26:11;14.40;99.90
31387;DHT22;69978;50.096;8.448;2023-08-30T03:28:38;14.40;99.90
31387;DHT22;69978;50.096;8.448;2023-08-30T03:31:21;14.40;99.90
31387;DHT22;69978;50.096;8.448;2023-08-30T03:33:48;14.40;99.90
31387;DHT22;69978;50.096;8.448;2023-08-30T03:36:16;14.40;99.90
31387;DHT22;69978;50.096;8.448;2023-08-30T03:38:44;14.30;99.90
31387;DHT22;69978;50.096;8.448;2023-08-30T03:41:11;14.30;99.90
31387;DHT22;69978;50.096;8.448;2023-08-30T03:43:37;14.40;99.90
31387;DHT22;69978;50.096;8.448;2023-08-30T03:46:03;14.40;99.90
31387;DHT22;69978;50.096;8.448;2023-08-30T03:48:30;14.40;99.90
31387;DHT22;69978;50.096;8.448;2023-08-30T03:50:56;14.40;99.90
31387;DHT22;69978;50.096;8.448;2023-08-30T03:53:22;14.40;99.90
31387;DHT22;69978;50.096;8.448;2023-08-30T03:55:48;14.30;99.90
31387;DHT22;69978;50.096;8.448;2023-08-30T03:58:15;14.30;99.90
31387;DHT22;69978;50.096;8.448;2023-08-30T04:00:40;14.30;99.90
31387;DHT22;69978;50.096;8.448;2023-08-30T04:03:09;14.30;99.90
31387;DHT22;69978;50.096;8.448;2023-08-30T04:05:38;14.30;99.90
31387;DHT22;69978;50.096;8.448;2023-08-30T04:08:06;14.30;99.90
31387;DHT22;69978;50.096;8.448;2023-08-30T04:10:39;14.30;99.90
31387;DHT22;69978;50.096;8.448;2023-08-30T04:13:07;14.30;99.90
31387;DHT22;69978;50.096;8.448;2023-08-30T04:15:34;14.30;99.90
31387;DHT22;69978;50.096;8.448;2023-08-30T04:18:04;14.20;99.90
31387;DHT22;69978;50.096;8.448;2023-08-30T04:20:30;14.20;99.90
31387;DHT22;69978;50.096;8.448;2023-08-30T04:22:56;14.20;99.90
31387;DHT22;69978;50.096;8.448;2023-08-30T04:25:23;14.20;99.90
31387;DHT22;69978;50.096;8.448;2023-08-30T04:30:18;14.20;99.90
31387;DHT22;69978;50.096;8.448;2023-08-30T04:32:44;14.20;99.90
31387;DHT22;69978;50.096;8.448;2023-08-30T04:35:09;14.10;99.90
31387;DHT22;69978;50.096;8.448;2023-08-30T04:37:35;14.10;99.90
31387;DHT22;69978;50.096;8.448;2023-08-30T04:40:04;14.10;99.90
31387;DHT22;69978;50.096;8.448;2023-08-30T04:42:30;14.10;99.90
31387;DHT22;69978;50.096;8.448;2023-08-30T04:44:55;14.10;99.90
31387;DHT22;69978;50.096;8.448;2023-08-30T04:47:22;14.10;99.90
31387;DHT22;69978;50.096;8.448;2023-08-30T04:49:51;14.10;99.90
31387;DHT22;69978;50.096;8.448;2023-08-30T04:52:17;14.00;99.90
31387;DHT22;69978;50.096;8.448;2023-08-30T04:54:43;14.00;99.90
31387;DHT22;69978;50.096;8.448;2023-08-30T04:57:12;14.00;99.90
31387;DHT22;69978;50.096;8.448;2023-08-30T04:59:48;14.00;99.90
31387;DHT22;69978;50.096;8.448;2023-08-30T05:02:14;14.00;99.90
31387;DHT22;69978;50.096;8.448;2023-08-30T05:04:40;14.00;99.90
31387;DHT22;69978;50.096;8.448;2023-08-30T05:07:05;14.00;99.90
31387;DHT22;69978;50.096;8.448;2023-08-30T05:09:31;14.00;99.90
31387;DHT22;69978;50.096;8.448;2023-08-30T05:11:57;14.10;99.90
31387;DHT22;69978;50.096;8.448;2023-08-30T05:14:23;14.00;99.90
31387;DHT22;69978;50.096;8.448;2023-08-30T05:16:49;14.00;99.90
31387;DHT22;69978;50.096;8.448;2023-08-30T05:19:15;14.00;99.90
31387;DHT22;69978;50.096;8.448;2023-08-30T05:21:44;14.00;99.90
31387;DHT22;69978;50.096;8.448;2023-08-30T05:24:09;14.00;99.90
31387;DHT22;69978;50.096;8.448;2023-08-30T05:26:36;14.00;99.90
31387;DHT22;69978;50.096;8.448;2023-08-30T05:29:02;14.00;99.90
31387;DHT22;69978;50.096;8.448;2023-08-30T05:31:28;14.00;99.90
31387;DHT22;69978;50.096;8.448;2023-08-30T05:33:53;14.10;99.90
31387;DHT22;69978;50.096;8.448;2023-08-30T05:36:20;14.10;99.90
31387;DHT22;69978;50.096;8.448;2023-08-30T05:38:45;14.10;99.90
31387;DHT22;69978;50.096;8.448;2023-08-30T05:41:11;14.10;99.90
31387;DHT22;69978;50.096;8.448;2023-08-30T05:43:39;14.10;99.90
31387;DHT22;69978;50.096;8.448;2023-08-30T05:46:04;14.10;99.90
31387;DHT22;69978;50.096;8.448;2023-08-30T05:48:30;14.10;99.90
31387;DHT22;69978;50.096;8.448;2023-08-30T05:50:56;14.10;99.90
31387;DHT22;69978;50.096;8.448;2023-08-30T05:53:23;14.20;99.90
31387;DHT22;69978;50.096;8.448;2023-08-30T05:55:49;14.20;99.90
31387;DHT22;69978;50.096;8.448;2023-08-30T05:58:15;14.20;99.90
31387;DHT22;69978;50.096;8.448;2023-08-30T06:00:42;14.20;99.90
31387;DHT22;69978;50.096;8.448;2023-08-30T06:03:09;14.20;99.90
31387;DHT22;69978;50.096;8.448;2023-08-30T06:05:36;14.30;99.90
31387;DHT22;69978;50.096;8.448;2023-08-30T06:08:02;14.30;99.90
31387;DHT22;69978;50.096;8.448;2023-08-30T06:10:28;14.30;99.90
31387;DHT22;69978;50.096;8.448;2023-08-30T06:12:53;14.30;99.90
31387;DHT22;69978;50.096;8.448;2023-08-30T06:15:19;14.30;99.90
31387;DHT22;69978;50.096;8.448;2023-08-30T06:17:45;14.30;99.90
31387;DHT22;69978;50.096;8.448;2023-08-30T06:20:11;14.30;99.90
31387;DHT22;69978;50.096;8.448;2023-08-30T06:22:37;14.30;99.90
31387;DHT22;69978;50.096;8.448;2023-08-30T06:25:03;14.40;99.90
31387;DHT22;69978;50.096;8.448;2023-08-30T06:27:30;14.40;99.90
31387;DHT22;69978;50.096;8.448;2023-08-30T06:29:55;14.40;99.90
31387;DHT22;69978;50.096;8.448;2023-08-30T06:32:21;14.50;99.90
31387;DHT22;69978;50.096;8.448;2023-08-30T06:34:47;14.50;99.90
31387;DHT22;69978;50.096;8.448;2023-08-30T06:37:12;14.60;99.90
31387;DHT22;69978;50.096;8.448;2023-08-30T06:39:38;14.60;99.90
31387;DHT22;69978;50.096;8.448;2023-08-30T06:42:04;14.60;99.90
31387;DHT22;69978;50.096;8.448;2023-08-30T06:44:30;14.70;99.90
31387;DHT22;69978;50.096;8.448;2023-08-30T06:46:58;14.80;99.90
31387;DHT22;69978;50.096;8.448;2023-08-30T06:49:24;14.80;99.90
31387;DHT22;69978;50.096;8.448;2023-08-30T06:51:50;14.90;99.90
31387;DHT22;69978;50.096;8.448;2023-08-30T06:54:15;15.00;99.90
31387;DHT22;69978;50.096;8.448;2023-08-30T06:56:45;15.00;99.90
31387;DHT22;69978;50.096;8.448;2023-08-30T06:59:21;15.10;99.90
31387;DHT22;69978;50.096;8.448;2023-08-30T07:01:48;15.20;99.90
31387;DHT22;69978;50.096;8.448;2023-08-30T07:04:14;15.20;99.90
31387;DHT22;69978;50.096;8.448;2023-08-30T07:06:39;15.20;99.90
31387;DHT22;69978;50.096;8.448;2023-08-30T07:09:05;15.20;99.90
31387;DHT22;69978;50.096;8.448;2023-08-30T07:11:31;15.20;99.90
31387;DHT22;69978;50.096;8.448;2023-08-30T07:13:57;15.20;99.90
31387;DHT22;69978;50.096;8.448;2023-08-30T07:16:23;15.30;99.90
31387;DHT22;69978;50.096;8.448;2023-08-30T07:18:48;15.30;99.90
31387;DHT22;69978;50.096;8.448;2023-08-30T07:21:14;15.40;99.90
31387;DHT22;69978;50.096;8.448;2023-08-30T07:23:39;15.40;99.90
31387;DHT22;69978;50.096;8.448;2023-08-30T07:26:05;15.50;99.90
31387;DHT22;69978;50.096;8.448;2023-08-30T07:28:32;15.60;99.90
31387;DHT22;69978;50.096;8.448;2023-08-30T07:31:03;15.70;99.90
31387;DHT22;69978;50.096;8.448;2023-08-30T07:33:29;15.80;99.90
31387;DHT22;69978;50.096;8.448;2023-08-30T07:35:54;15.90;99.90
31387;DHT22;69978;50.096;8.448;2023-08-30T07:38:21;16.00;99.90
31387;DHT22;69978;50.096;8.448;2023-08-30T07:40:47;16.10;99.90
31387;DHT22;69978;50.096;8.448;2023-08-30T07:43:12;16.10;99.90
31387;DHT22;69978;50.096;8.448;2023-08-30T07:45:38;16.20;99.90
31387;DHT22;69978;50.096;8.448;2023-08-30T07:48:05;16.30;99.90
31387;DHT22;69978;50.096;8.448;2023-08-30T07:50:31;16.30;99.90
31387;DHT22;69978;50.096;8.448;2023-08-30T07:52:56;16.40;99.90
31387;DHT22;69978;50.096;8.448;2023-08-30T07:55:22;16.40;99.90
31387;DHT22;69978;50.096;8.448;2023-08-30T07:57:47;16.50;99.90
31387;DHT22;69978;50.096;8.448;2023-08-30T08:00:13;16.60;99.90
31387;DHT22;69978;50.096;8.448;2023-08-30T08:02:40;16.70;99.90
31387;DHT22;69978;50.096;8.448;2023-08-30T08:05:06;16.70;99.90
31387;DHT22;69978;50.096;8.448;2023-08-30T08:07:32;16.70;99.90
31387;DHT22;69978;50.096;8.448;2023-08-30T08:09:58;16.80;99.90
31387;DHT22;69978;50.096;8.448;2023-08-30T08:12:23;16.90;99.90
31387;DHT22;69978;50.096;8.448;2023-08-30T08:14:49;17.00;99.90
31387;DHT22;69978;50.096;8.448;2023-08-30T08:17:15;17.00;99.90
31387;DHT22;69978;50.096;8.448;2023-08-30T08:19:40;17.00;99.90
31387;DHT22;69978;50.096;8.448;2023-08-30T08:22:08;17.10;99.90
31387;DHT22;69978;50.096;8.448;2023-08-30T08:24:34;17.00;99.90
31387;DHT22;69978;50.096;8.448;2023-08-30T08:26:59;17.20;99.90
31387;DHT22;69978;50.096;8.448;2023-08-30T08:29:27;17.40;99.90
31387;DHT22;69978;50.096;8.448;2023-08-30T08:31:53;17.40;99.90
31387;DHT22;69978;50.096;8.448;2023-08-30T08:34:20;17.40;99.90
31387;DHT22;69978;50.096;8.448;2023-08-30T08:36:47;17.40;99.90
31387;DHT22;69978;50.096;8.448;2023-08-30T08:39:12;17.40;99.90
31387;DHT22;69978;50.096;8.448;2023-08-30T08:41:44;17.40;99.90
31387;DHT22;69978;50.096;8.448;2023-08-30T08:44:10;17.50;99.90
31387;DHT22;69978;50.096;8.448;2023-08-30T08:46:38;17.60;99.90
31387;DHT22;69978;50.096;8.448;2023-08-30T08:49:16;17.60;99.90
31387;DHT22;69978;50.096;8.448;2023-08-30T08:51:43;17.70;99.90
31387;DHT22;69978;50.096;8.448;2023-08-30T08:54:10;17.80;99.90
31387;DHT22;69978;50.096;8.448;2023-08-30T08:56:36;17.80;99.90
31387;DHT22;69978;50.096;8.448;2023-08-30T08:59:03;17.80;99.90
31387;DHT22;69978;50.096;8.448;2023-08-30T09:01:29;18.00;99.90
31387;DHT22;69978;50.096;8.448;2023-08-30T09:03:55;18.10;99.90
31387;DHT22;69978;50.096;8.448;2023-08-30T09:06:25;18.20;99.90
31387;DHT22;69978;50.096;8.448;2023-08-30T09:08:51;18.40;99.90
31387;DHT22;69978;50.096;8.448;2023-08-30T09:11:16;18.50;99.90
31387;DHT22;69978;50.096;8.448;2023-08-30T09:13:43;18.60;99.90
31387;DHT22;69978;50.096;8.448;2023-08-30T09:16:15;18.50;99.90
31387;DHT22;69978;50.096;8.448;2023-08-30T09:18:42;18.50;99.90
31387;DHT22;69978;50.096;8.448;2023-08-30T09:21:09;18.60;99.90
31387;DHT22;69978;50.096;8.448;2023-08-30T09:23:35;18.70;99.90
31387;DHT22;69978;50.096;8.448;2023-08-30T09:26:01;18.80;99.90
31387;DHT22;69978;50.096;8.448;2023-08-30T09:28:28;19.00;99.90
31387;DHT22;69978;50.096;8.448;2023-08-30T09:30:54;19.30;99.90
31387;DHT22;69978;50.096;8.448;2023-08-30T09:33:32;19.40;99.90
31387;DHT22;69978;50.096;8.448;2023-08-30T09:36:01;19.70;99.90
31387;DHT22;69978;50.096;8.448;2023-08-30T09:38:27;19.90;99.90
31387;DHT22;69978;50.096;8.448;2023-08-30T09:41:11;19.90;99.90
31387;DHT22;69978;50.096;8.448;2023-08-30T09:43:42;19.90;99.90
31387;DHT22;69978;50.096;8.448;2023-08-30T09:46:09;20.00;99.90
31387;DHT22;69978;50.096;8.448;2023-08-30T09:48:34;20.10;99.90
31387;DHT22;69978;50.096;8.448;2023-08-30T09:51:03;20.20;99.90
31387;DHT22;69978;50.096;8.448;2023-08-30T09:53:32;20.50;99.90
31387;DHT22;69978;50.096;8.448;2023-08-30T09:56:02;20.70;99.90
31387;DHT22;69978;50.096;8.448;2023-08-30T09:58:28;21.10;99.90
31387;DHT22;69978;50.096;8.448;2023-08-30T10:00:55;21.50;99.90
31387;DHT22;69978;50.096;8.448;2023-08-30T10:03:23;21.50;99.90
31387;DHT22;69978;50.096;8.448;2023-08-30T10:05:49;21.80;99.90
31387;DHT22;69978;50.096;8.448;2023-08-30T10:08:15;22.00;99.90
31387;DHT22;69978;50.096;8.448;2023-08-30T10:10:42;22.30;99.90
31387;DHT22;69978;50.096;8.448;2023-08-30T10:13:09;22.40;99.90
31387;DHT22;69978;50.096;8.448;2023-08-30T10:15:47;22.20;99.90
31387;DHT22;69978;50.096;8.448;2023-08-30T10:18:15;22.40;99.90
31387;DHT22;69978;50.096;8.448;2023-08-30T10:20:44;22.30;99.90
31387;DHT22;69978;50.096;8.448;2023-08-30T10:23:10;22.40;99.90
31387;DHT22;69978;50.096;8.448;2023-08-30T10:25:37;22.30;99.90
31387;DHT22;69978;50.096;8.448;2023-08-30T10:28:04;22.50;99.90
31387;DHT22;69978;50.096;8.448;2023-08-30T10:30:30;22.80;99.90
31387;DHT22;69978;50.096;8.448;2023-08-30T10:32:56;22.80;99.90
31387;DHT22;69978;50.096;8.448;2023-08-30T10:35:22;22.80;99.90
31387;DHT22;69978;50.096;8.448;2023-08-30T10:37:59;22.90;99.90
31387;DHT22;69978;50.096;8.448;2023-08-30T10:40:25;22.70;99.90
31387;DHT22;69978;50.096;8.448;2023-08-30T10:43:03;22.50;99.90
31387;DHT22;69978;50.096;8.448;2023-08-30T10:45:29;22.50;99.90
31387;DHT22;69978;50.096;8.448;2023-08-30T10:47:57;22.50;99.90
31387;DHT22;69978;50.096;8.448;2023-08-30T10:50:31;22.60;99.90
31387;DHT22;69978;50.096;8.448;2023-08-30T10:52:57;22.30;99.90
31387;DHT22;69978;50.096;8.448;2023-08-30T10:55:23;21.90;99.90
31387;DHT22;69978;50.096;8.448;2023-08-30T10:57:59;21.90;99.90
31387;DHT22;69978;50.096;8.448;2023-08-30T11:00:28;21.90;99.90
31387;DHT22;69978;50.096;8.448;2023-08-30T11:02:55;22.10;99.90
31387;DHT22;69978;50.096;8.448;2023-08-30T11:05:23;22.50;99.90
31387;DHT22;69978;50.096;8.448;2023-08-30T11:07:50;22.80;99.90
31387;DHT22;69978;50.096;8.448;2023-08-30T11:10:17;23.00;99.90
31387;DHT22;69978;50.096;8.448;2023-08-30T11:12:44;22.60;99.90
31387;DHT22;69978;50.096;8.448;2023-08-30T11:15:14;22.80;99.90
31387;DHT22;69978;50.096;8.448;2023-08-30T11:17:40;22.90;99.90
31387;DHT22;69978;50.096;8.448;2023-08-30T11:22:39;22.80;99.90
31387;DHT22;69978;50.096;8.448;2023-08-30T11:25:05;22.80;99.90
31387;DHT22;69978;50.096;8.448;2023-08-30T11:27:33;23.10;99.90
31387;DHT22;69978;50.096;8.448;2023-08-30T11:30:02;22.90;99.90
31387;DHT22;69978;50.096;8.448;2023-08-30T11:32:39;22.90;99.90
31387;DHT22;69978;50.096;8.448;2023-08-30T11:35:06;22.70;99.90
31387;DHT22;69978;50.096;8.448;2023-08-30T11:37:32;23.00;99.90
31387;DHT22;69978;50.096;8.448;2023-08-30T11:39:59;23.00;99.90
31387;DHT22;69978;50.096;8.448;2023-08-30T11:42:25;23.00;99.90
31387;DHT22;69978;50.096;8.448;2023-08-30T11:44:51;22.90;99.90
31387;DHT22;69978;50.096;8.448;2023-08-30T11:47:22;23.00;99.90
31387;DHT22;69978;50.096;8.448;2023-08-30T11:49:49;22.90;99.90
31387;DHT22;69978;50.096;8.448;2023-08-30T11:52:16;23.00;99.90
31387;DHT22;69978;50.096;8.448;2023-08-30T11:54:43;23.00;99.90
31387;DHT22;69978;50.096;8.448;2023-08-30T11:57:09;22.70;99.90
31387;DHT22;69978;50.096;8.448;2023-08-30T11:59:35;22.70;99.90
31387;DHT22;69978;50.096;8.448;2023-08-30T12:02:03;22.60;99.90
31387;DHT22;69978;50.096;8.448;2023-08-30T12:04:30;22.70;99.90
31387;DHT22;69978;50.096;8.448;2023-08-30T12:06:56;22.70;99.90
31387;DHT22;69978;50.096;8.448;2023-08-30T12:09:22;22.80;99.90
31387;DHT22;69978;50.096;8.448;2023-08-30T12:11:48;22.80;99.90
31387;DHT22;69978;50.096;8.448;2023-08-30T12:14:14;22.70;99.90
31387;DHT22;69978;50.096;8.448;2023-08-30T12:17:04;22.60;99.90
31387;DHT22;69978;50.096;8.448;2023-08-30T12:19:31;22.60;99.90
31387;DHT22;69978;50.096;8.448;2023-08-30T12:22:03;22.60;99.90
31387;DHT22;69978;50.096;8.448;2023-08-30T12:25:01;22.60;99.90
31387;DHT22;69978;50.096;8.448;2023-08-30T12:27:26;22.70;99.90
31387;DHT22;69978;50.096;8.448;2023-08-30T12:29:51;22.80;99.90
31387;DHT22;69978;50.096;8.448;2023-08-30T12:32:17;23.00;99.90
31387;DHT22;69978;50.096;8.448;2023-08-30T12:34:42;23.20;99.90
31387;DHT22;69978;50.096;8.448;2023-08-30T12:37:08;23.30;99.90
31387;DHT22;69978;50.096;8.448;2023-08-30T12:39:34;23.60;99.90
31387;DHT22;69978;50.096;8.448;2023-08-30T12:42:00;23.40;99.90
31387;DHT22;69978;50.096;8.448;2023-08-30T12:44:26;23.60;99.90
31387;DHT22;69978;50.096;8.448;2023-08-30T12:46:51;23.60;99.90
31387;DHT22;69978;50.096;8.448;2023-08-30T12:49:17;23.40;99.90
31387;DHT22;69978;50.096;8.448;2023-08-30T12:51:42;23.50;99.90
31387;DHT22;69978;50.096;8.448;2023-08-30T12:54:08;23.50;99.90
31387;DHT22;69978;50.096;8.448;2023-08-30T12:56:34;23.50;99.90
31387;DHT22;69978;50.096;8.448;2023-08-30T12:59:00;23.30;99.90
31387;DHT22;69978;50.096;8.448;2023-08-30T13:01:25;23.20;99.90
31387;DHT22;69978;50.096;8.448;2023-08-30T13:03:51;23.40;99.90
31387;DHT22;69978;50.096;8.448;2023-08-30T13:06:16;23.50;99.90
31387;DHT22;69978;50.096;8.448;2023-08-30T13:08:42;23.50;99.90
31387;DHT22;69978;50.096;8.448;2023-08-30T13:11:07;23.40;99.90
31387;DHT22;69978;50.096;8.448;2023-08-30T13:13:33;23.20;99.90
31387;DHT22;69978;50.096;8.448;2023-08-30T13:15:58;23.10;99.90
31387;DHT22;69978;50.096;8.448;2023-08-30T13:18:24;23.00;99.90
31387;DHT22;69978;50.096;8.448;2023-08-30T13:20:50;23.00;99.90
31387;DHT22;69978;50.096;8.448;2023-08-30T13:23:19;22.70;99.90
31387;DHT22;69978;50.096;8.448;2023-08-30T13:25:45;22.70;99.90
31387;DHT22;69978;50.096;8.448;2023-08-30T13:28:12;22.70;99.90
31387;DHT22;69978;50.096;8.448;2023-08-30T13:30:44;22.60;99.90
31387;DHT22;69978;50.096;8.448;2023-08-30T13:33:11;22.50;99.90
31387;DHT22;69978;50.096;8.448;2023-08-30T13:35:39;22.50;99.90
31387;DHT22;69978;50.096;8.448;2023-08-30T13:38:04;22.60;99.90
31387;DHT22;69978;50.096;8.448;2023-08-30T13:40:30;22.60;99.90
31387;DHT22;69978;50.096;8.448;2023-08-30T13:42:56;22.50;99.90
31387;DHT22;69978;50.096;8.448;2023-08-30T13:45:21;22.50;99.90
31387;DHT22;69978;50.096;8.448;2023-08-30T13:47:47;22.50;99.90
31387;DHT22;69978;50.096;8.448;2023-08-30T13:50:12;22.50;99.90
31387;DHT22;69978;50.096;8.448;2023-08-30T13:52:38;22.50;99.90
31387;DHT22;69978;50.096;8.448;2023-08-30T13:55:04;22.40;99.90
31387;DHT22;69978;50.096;8.448;2023-08-30T13:57:30;22.40;99.90
31387;DHT22;69978;50.096;8.448;2023-08-30T13:59:56;22.30;99.90
31387;DHT22;69978;50.096;8.448;2023-08-30T14:02:21;22.40;99.90
31387;DHT22;69978;50.096;8.448;2023-08-30T14:04:47;22.40;99.90
31387;DHT22;69978;50.096;8.448;2023-08-30T14:07:12;22.30;99.90
31387;DHT22;69978;50.096;8.448;2023-08-30T14:09:38;22.30;99.90
31387;DHT22;69978;50.096;8.448;2023-08-30T14:12:04;22.10;99.90
31387;DHT22;69978;50.096;8.448;2023-08-30T14:14:29;22.00;99.90
31387;DHT22;69978;50.096;8.448;2023-08-30T14:16:55;22.00;99.90
31387;DHT22;69978;50.096;8.448;2023-08-30T14:19:21;22.00;99.90
31387;DHT22;69978;50.096;8.448;2023-08-30T14:21:46;22.00;99.90
31387;DHT22;69978;50.096;8.448;2023-08-30T14:24:12;22.10;99.90
31387;DHT22;69978;50.096;8.448;2023-08-30T14:26:37;22.10;99.90
31387;DHT22;69978;50.096;8.448;2023-08-30T14:29:03;22.10;99.90
31387;DHT22;69978;50.096;8.448;2023-08-30T14:31:29;22.10;99.90
31387;DHT22;69978;50.096;8.448;2023-08-30T14:33:56;22.10;99.90
31387;DHT22;69978;50.096;8.448;2023-08-30T14:36:24;22.10;99.90
31387;DHT22;69978;50.096;8.448;2023-08-30T14:38:50;22.00;99.90
31387;DHT22;69978;50.096;8.448;2023-08-30T14:41:15;22.00;99.90
31387;DHT22;69978;50.096;8.448;2023-08-30T14:43:43;22.00;99.90
31387;DHT22;69978;50.096;8.448;2023-08-30T14:46:08;21.90;99.90
31387;DHT22;69978;50.096;8.448;2023-08-30T14:48:34;21.80;99.90
31387;DHT22;69978;50.096;8.448;2023-08-30T14:51:01;21.70;99.90
31387;DHT22;69978;50.096;8.448;2023-08-30T14:53:27;21.60;99.90
31387;DHT22;69978;50.096;8.448;2023-08-30T14:55:53;21.50;99.90
31387;DHT22;69978;50.096;8.448;2023-08-30T14:58:20;21.30;99.90
31387;DHT22;69978;50.096;8.448;2023-08-30T15:00:49;21.20;99.90
31387;DHT22;69978;50.096;8.448;2023-08-30T15:03:15;21.10;99.90
31387;DHT22;69978;50.096;8.448;2023-08-30T15:05:41;21.20;99.90
31387;DHT22;69978;50.096;8.448;2023-08-30T15:08:07;21.30;99.90
31387;DHT22;69978;50.096;8.448;2023-08-30T15:10:33;21.30;99.90
31387;DHT22;69978;50.096;8.448;2023-08-30T15:12:58;21.40;99.90
31387;DHT22;69978;50.096;8.448;2023-08-30T15:15:24;21.30;99.90
31387;DHT22;69978;50.096;8.448;2023-08-30T15:17:50;21.40;99.90
31387;DHT22;69978;50.096;8.448;2023-08-30T15:20:16;21.40;99.90
31387;DHT22;69978;50.096;8.448;2023-08-30T15:22:41;21.40;99.90
31387;DHT22;69978;50.096;8.448;2023-08-30T15:25:07;21.30;99.90
31387;DHT22;69978;50.096;8.448;2023-08-30T15:27:36;21.40;99.90
31387;DHT22;69978;50.096;8.448;2023-08-30T15:30:02;21.40;99.90
31387;DHT22;69978;50.096;8.448;2023-08-30T15:32:28;21.40;99.90
31387;DHT22;69978;50.096;8.448;2023-08-30T15:34:54;21.50;99.90
31387;DHT22;69978;50.096;8.448;2023-08-30T15:37:20;21.50;99.90
31387;DHT22;69978;50.096;8.448;2023-08-30T15:39:46;21.50;99.90